Time;durP1;ratioP1;P1;durP2;ratioP2;P2;SDS_P1;SDS_P2;PMS_P1;PMS_P2;Temp;Humidity;BMP_temperature;BMP_pressure;BME280_temperature;BME280_humidity;BME280_pressure;Samples;Min_cycle;Max_cycle;Signal;HPM_P1;HPM_P2
2023/02/27 00:02:51;;;;;;;;;;;;;;;-3.37;100.00;95842.00;10405144;28;2073;-64
2023/02/27 00:08:05;;;;;;;;;;;;;;;-3.47;100.00;95837.06;10415446;28;1965;-64
2023/02/27 00:13:07;;;;;;;;;;;;;;;-3.53;100.00;95850.94;10401950;28;1939;-66
2023/02/27 00:18:10;;;;;;;;;;;;;;;-3.58;100.00;95838.34;10402327;28;1969;-66
2023/02/27 00:23:14;;;;;;;;;;;;;;;-3.57;100.00;95855.72;10397134;28;2053;-65
2023/02/27 00:28:16;;;;;;;;;;;;;;;-3.44;100.00;95860.34;10395726;28;2079;-66
2023/02/27 00:33:20;;;;;;;;;;;;;;;-3.37;100.00;95850.75;10403113;28;2089;-66
2023/02/27 00:38:22;;;;;;;;;;;;;;;-3.34;100.00;95850.34;10396176;28;1947;-65
2023/02/27 00:43:25;;;;;;;;;;;;;;;-3.49;100.00;95851.41;10390579;28;2162;-64
2023/02/27 00:48:28;;;;;;;;;;;;;;;-3.60;100.00;95847.41;10395537;28;2013;-64
2023/02/27 00:53:30;;;;;;;;;;;;;;;-3.58;100.00;95861.19;10430352;28;1966;-66
2023/02/27 00:58:33;;;;;;;;;;;;;;;-3.55;100.00;95855.56;10395893;28;2064;-65
2023/02/27 01:03:35;;;;;;;;;;;;;;;-3.51;100.00;95864.69;10394976;28;1971;-65
2023/02/27 01:08:38;;;;;;;;;;;;;;;-3.50;100.00;95855.81;10392460;28;1966;-64
2023/02/27 01:13:40;;;;;;;;;;;;;;;-3.45;100.00;95858.72;10389426;28;1981;-66
2023/02/27 01:18:44;;;;;;;;;;;;;;;-3.41;100.00;95854.72;10396258;28;1986;-67
2023/02/27 01:23:47;;;;;;;;;;;;;;;-3.38;100.00;95849.09;10404325;28;1966;-65
2023/02/27 01:28:50;;;;;;;;;;;;;;;-3.35;100.00;95859.25;10398603;28;2124;-65
2023/02/27 01:33:52;;;;;;;;;;;;;;;-3.33;100.00;95851.97;10412675;28;1946;-65
2023/02/27 01:38:55;;;;;;;;;;;;;;;-3.31;100.00;95847.38;10396843;28;1962;-66
2023/02/27 01:43:58;;;;;;;;;;;;;;;-3.26;100.00;95850.22;10394497;28;1957;-64
2023/02/27 01:49:01;;;;;;;;;;;;;;;-3.21;100.00;95849.69;10392595;28;2109;-74
2023/02/27 01:54:04;;;;;;;;;;;;;;;-3.19;100.00;95854.75;10396921;28;2100;-77
2023/02/27 01:59:06;;;;;;;;;;;;;;;-3.19;100.00;95850.31;10391565;28;1965;-66
2023/02/27 02:04:09;;;;;;;;;;;;;;;-3.23;100.00;95856.94;10387160;28;2076;-65
2023/02/27 02:09:11;;;;;;;;;;;;;;;-3.24;100.00;95868.47;10394482;28;1991;-65
2023/02/27 02:14:19;;;;;;;;;;;;;;;-3.26;100.00;95850.22;10384416;28;1942;-67
2023/02/27 02:19:22;;;;;;;;;;;;;;;-3.34;100.00;95850.34;10394274;28;2004;-66
2023/02/27 02:24:24;;;;;;;;;;;;;;;-3.44;100.00;95851.63;10389371;28;2002;-72
2023/02/27 02:29:27;;;;;;;;;;;;;;;-3.50;100.00;95861.06;10398584;28;1900;-66
2023/02/27 02:34:29;;;;;;;;;;;;;;;-3.50;100.00;95855.00;10394365;28;2124;-66
2023/02/27 02:39:32;;;;;;;;;;;;;;;-3.46;100.00;95845.75;10408220;28;2170;-68
2023/02/27 02:44:35;;;;;;;;;;;;;;;-3.49;100.00;95836.44;10406365;28;2059;-65
2023/02/27 02:49:38;;;;;;;;;;;;;;;-3.52;100.00;95847.31;10401364;28;1981;-66
2023/02/27 02:54:40;;;;;;;;;;;;;;;-3.56;100.00;95836.38;10406108;28;1987;-65
2023/02/27 02:59:43;;;;;;;;;;;;;;;-3.60;100.00;95840.34;10401892;28;1974;-65
2023/02/27 03:04:46;;;;;;;;;;;;;;;-3.65;100.00;95857.66;10396739;28;2048;-65
2023/02/27 03:09:50;;;;;;;;;;;;;;;-3.64;100.00;95856.66;10400700;28;1978;-67
2023/02/27 03:14:52;;;;;;;;;;;;;;;-3.66;100.00;95859.47;10410500;28;2010;-66
2023/02/27 03:19:55;;;;;;;;;;;;;;;-3.67;100.00;95854.41;10397045;28;1930;-65
2023/02/27 03:24:58;;;;;;;;;;;;;;;-3.64;100.00;95856.66;10398105;28;2167;-64
2023/02/27 03:30:00;;;;;;;;;;;;;;;-3.68;100.00;95855.41;10400750;28;1995;-65
2023/02/27 03:35:02;;;;;;;;;;;;;;;-3.68;100.00;95858.03;10397991;28;2045;-66
2023/02/27 03:40:06;;;;;;;;;;;;;;;-3.69;100.00;95867.72;10402206;28;2126;-66
2023/02/27 03:45:08;;;;;;;;;;;;;;;-3.64;100.00;95869.78;10396897;28;1942;-65
2023/02/27 03:50:11;;;;;;;;;;;;;;;-3.60;100.00;95871.06;10394900;28;2012;-66
2023/02/27 03:55:15;;;;;;;;;;;;;;;-3.58;100.00;95874.31;10404503;28;1938;-65
2023/02/27 04:00:17;;;;;;;;;;;;;;;-3.54;100.00;95872.97;10398538;28;1939;-65
2023/02/27 04:05:24;;;;;;;;;;;;;;;-3.53;100.00;95877.22;10400908;28;2125;-65
2023/02/27 04:10:26;;;;;;;;;;;;;;;-3.51;100.00;95880.47;10401366;28;2067;-65
2023/02/27 04:15:38;;;;;;;;;;;;;;;-3.51;100.00;95880.47;10393455;28;1934;-64
2023/02/27 04:20:50;;;;;;;;;;;;;;;-3.57;100.00;95887.25;10399678;28;2041;-66
2023/02/27 04:25:53;;;;;;;;;;;;;;;-3.49;100.00;95878.50;10400453;28;1978;-66
2023/02/27 04:30:56;;;;;;;;;;;;;;;-3.51;100.00;95883.09;10402861;28;2147;-69
2023/02/27 04:35:59;;;;;;;;;;;;;;;-3.54;100.00;95891.34;10396371;28;2078;-65
2023/02/27 04:41:02;;;;;;;;;;;;;;;-3.55;100.00;95885.28;10398773;28;1992;-65
2023/02/27 04:46:04;;;;;;;;;;;;;;;-3.59;100.00;95884.00;10420196;28;1997;-66
2023/02/27 04:51:07;;;;;;;;;;;;;;;-3.56;100.00;95873.16;10400812;28;2035;-66
2023/02/27 04:56:13;;;;;;;;;;;;;;;-3.62;100.00;95878.31;10389321;28;1949;-65
2023/02/27 05:01:15;;;;;;;;;;;;;;;-3.61;100.00;95887.84;10389537;28;2032;-65
2023/02/27 05:06:18;;;;;;;;;;;;;;;-3.63;100.00;95879.28;10398086;28;2005;-66
2023/02/27 05:11:21;;;;;;;;;;;;;;;-3.67;100.00;95880.69;10394675;28;2107;-66
2023/02/27 05:16:25;;;;;;;;;;;;;;;-3.66;100.00;95887.56;10391749;28;2003;-66
2023/02/27 05:21:28;;;;;;;;;;;;;;;-3.73;100.00;95881.41;10387702;28;2021;-66
2023/02/27 05:26:30;;;;;;;;;;;;;;;-3.77;100.00;95888.00;10396505;28;1985;-66
2023/02/27 05:31:34;;;;;;;;;;;;;;;-3.77;100.00;95893.25;10399758;28;2028;-66
2023/02/27 05:36:36;;;;;;;;;;;;;;;-3.82;100.00;95889.38;10397277;28;1983;-70
2023/02/27 05:41:38;;;;;;;;;;;;;;;-3.81;100.00;95893.63;10411245;28;1687;-75
2023/02/27 05:46:44;;;;;;;;;;;;;;;-3.78;100.00;95896.88;10402654;28;1748;-73
2023/02/27 05:51:46;;;;;;;;;;;;;;;-3.83;100.00;95897.44;10403307;28;1724;-68
2023/02/27 05:56:49;;;;;;;;;;;;;;;-3.77;100.00;95893.25;10393459;28;1958;-65
2023/02/27 06:01:52;;;;;;;;;;;;;;;-3.78;100.00;95899.50;10406634;28;1982;-65
2023/02/27 06:06:55;;;;;;;;;;;;;;;-3.78;100.00;95896.88;10398283;28;2041;-64
2023/02/27 06:11:58;;;;;;;;;;;;;;;-3.72;100.00;95898.78;10394592;28;1966;-66
2023/02/27 06:17:02;;;;;;;;;;;;;;;-3.72;100.00;95909.31;10395224;28;1990;-66
2023/02/27 06:22:05;;;;;;;;;;;;;;;-3.75;100.00;95907.88;10387762;28;2054;-62
2023/02/27 06:27:08;;;;;;;;;;;;;;;-3.71;100.00;95905.66;10387910;28;1959;-62
2023/02/27 06:32:11;;;;;;;;;;;;;;;-3.67;100.00;95912.19;10385715;28;1919;-64
2023/02/27 06:37:14;;;;;;;;;;;;;;;-3.57;100.00;95918.78;10392888;28;1973;-63
2023/02/27 06:42:19;;;;;;;;;;;;;;;-3.50;100.00;95924.13;10399588;28;1903;-65
2023/02/27 06:47:22;;;;;;;;;;;;;;;-3.47;100.00;95918.53;10396849;28;1990;-65
2023/02/27 06:52:25;;;;;;;;;;;;;;;-3.40;100.00;95922.06;10395132;28;2165;-64
2023/02/27 06:57:28;;;;;;;;;;;;;;;-3.32;100.00;95926.38;10397480;28;1989;-66
2023/02/27 07:02:30;;;;;;;;;;;;;;;-3.30;100.00;95925.22;10395551;28;2014;-65
2023/02/27 07:07:33;;;;;;;;;;;;;;;-3.21;100.00;95922.50;10390698;28;2016;-66
2023/02/27 07:12:40;;;;;;;;;;;;;;;-3.13;100.00;95917.94;10393075;28;2022;-63
2023/02/27 07:17:43;;;;;;;;;;;;;;;-3.02;100.00;95925.34;10393671;28;2009;-63
2023/02/27 07:22:45;;;;;;;;;;;;;;;-3.04;100.00;95910.75;10386290;28;2052;-64
2023/02/27 07:27:49;;;;;;;;;;;;;;;-2.85;100.00;95920.69;10397313;28;1946;-65
2023/02/27 07:32:52;;;;;;;;;;;;;;;-2.70;100.00;95930.34;10417239;28;2003;-65
2023/02/27 07:37:55;;;;;;;;;;;;;;;-2.68;100.00;95931.75;10397577;28;2131;-63
2023/02/27 07:42:58;;;;;;;;;;;;;;;-2.61;100.00;95934.47;10396661;28;2113;-64
2023/02/27 07:48:01;;;;;;;;;;;;;;;-2.39;100.00;95932.66;10394624;28;2069;-65
2023/02/27 07:53:04;;;;;;;;;;;;;;;-2.38;100.00;95934.28;10399871;28;2095;-65
2023/02/27 07:58:07;;;;;;;;;;;;;;;-2.35;100.00;95947.91;10398219;28;2143;-63
2023/02/27 08:03:09;;;;;;;;;;;;;;;-2.11;100.00;95941.41;10396156;28;2117;-65
2023/02/27 08:08:12;;;;;;;;;;;;;;;-2.30;100.00;95948.13;10395369;28;1951;-64
2023/02/27 08:13:14;;;;;;;;;;;;;;;-1.95;100.00;95940.31;10397238;28;1957;-64
2023/02/27 08:18:21;;;;;;;;;;;;;;;-2.02;100.00;95948.19;10395089;28;2096;-65
2023/02/27 08:23:24;;;;;;;;;;;;;;;-1.84;100.00;95945.06;10434316;28;2091;-65
2023/02/27 08:28:27;;;;;;;;;;;;;;;-1.86;100.00;95947.06;10389609;28;2104;-65
2023/02/27 08:33:30;;;;;;;;;;;;;;;-1.67;100.00;95948.22;10396538;28;2128;-64
2023/02/27 08:38:32;;;;;;;;;;;;;;;-1.79;100.00;95962.91;10392382;28;2039;-65
2023/02/27 08:43:36;;;;;;;;;;;;;;;-1.85;100.00;95972.41;10401202;28;1974;-65
2023/02/27 08:48:41;;;;;;;;;;;;;;;-1.81;100.00;95971.03;10393633;28;2056;-65
2023/02/27 08:53:44;;;;;;;;;;;;;;;-1.77;100.00;95969.66;10388682;28;1958;-65
2023/02/27 08:58:46;;;;;;;;;;;;;;;-1.78;100.00;95972.44;10399301;28;1984;-67
2023/02/27 09:03:49;;;;;;;;;;;;;;;-1.76;100.00;95981.00;10396394;28;2156;-64
2023/02/27 09:08:52;;;;;;;;;;;;;;;-1.31;100.00;95984.94;10399092;28;1997;-65
2023/02/27 09:13:54;;;;;;;;;;;;;;;-1.26;100.00;95987.81;10403512;28;1965;-66
2023/02/27 09:18:56;;;;;;;;;;;;;;;-1.50;100.00;95990.91;10399230;28;1988;-67
2023/02/27 09:23:59;;;;;;;;;;;;;;;-1.69;100.00;96009.03;10390771;28;2018;-66
2023/02/27 09:29:18;;;;;;;;;;;;;;;-1.64;100.00;95985.56;10396930;28;1977;-75
2023/02/27 09:34:21;;;;;;;;;;;;;;;-1.45;100.00;95993.78;10387246;28;1980;-70
2023/02/27 09:39:24;;;;;;;;;;;;;;;-1.98;100.00;96009.19;10390557;28;1977;-66
2023/02/27 09:44:26;;;;;;;;;;;;;;;-2.31;100.00;96014.16;10394412;28;2068;-65
2023/02/27 09:49:46;;;;;;;;;;;;;;;-2.22;100.00;96026.22;10392929;28;2050;-64
2023/02/27 09:54:48;;;;;;;;;;;;;;;-2.13;100.00;96022.44;10391316;28;2129;-63
2023/02/27 09:59:51;;;;;;;;;;;;;;;-1.99;100.00;96033.91;10386639;28;1987;-65
2023/02/27 10:04:54;;;;;;;;;;;;;;;-1.66;100.00;96037.63;10392171;28;1970;-65
2023/02/27 10:09:56;;;;;;;;;;;;;;;-1.36;100.00;96026.91;10392576;28;2056;-66
2023/02/27 10:14:59;;;;;;;;;;;;;;;-0.99;100.00;96038.09;10387065;28;2057;-65
2023/02/27 10:20:03;;;;;;;;;;;;;;;-1.51;100.00;96047.28;10386802;28;1934;-65
2023/02/27 10:25:06;;;;;;;;;;;;;;;-1.58;100.00;96049.06;10386815;28;2024;-65
2023/02/27 10:30:28;;;;;;;;;;;;;;;-1.50;100.00;96048.91;10392769;28;2100;-66
2023/02/27 10:35:35;;;;;;;;;;;;;;;-1.02;100.00;96046.38;10387683;28;1970;-64
2023/02/27 10:40:38;;;;;;;;;;;;;;;-1.06;100.00;96053.88;10391998;28;1986;-65
2023/02/27 10:45:41;;;;;;;;;;;;;;;-1.00;100.00;96055.75;10396037;28;1970;-65
2023/02/27 10:50:43;;;;;;;;;;;;;;;-0.58;100.00;96038.88;10425403;28;2024;-65
2023/02/27 10:55:45;;;;;;;;;;;;;;;-0.55;100.00;96046.41;10395067;28;1973;-66
2023/02/27 11:00:48;;;;;;;;;;;;;;;0.05;100.00;96045.75;10394563;28;2031;-66
2023/02/27 11:05:51;;;;;;;;;;;;;;;-0.11;100.00;96036.41;10398290;28;1987;-65
2023/02/27 11:10:55;;;;;;;;;;;;;;;-0.55;100.00;96041.13;10400303;28;2069;-66
2023/02/27 11:15:58;;;;;;;;;;;;;;;-0.62;100.00;96050.88;10404236;28;1946;-64
2023/02/27 11:21:02;;;;;;;;;;;;;;;-0.95;100.00;96044.63;10398180;28;1961;-65
2023/02/27 11:26:06;;;;;;;;;;;;;;;-0.82;100.00;96037.56;10397500;28;2000;-66
2023/02/27 11:31:08;;;;;;;;;;;;;;;-0.78;100.00;96039.81;10396170;28;2034;-65
2023/02/27 11:36:11;;;;;;;;;;;;;;;-0.61;100.00;96049.03;10403745;28;2072;-65
2023/02/27 11:41:13;;;;;;;;;;;;;;;-0.75;100.00;96031.50;10407766;28;1977;-65
2023/02/27 11:46:16;;;;;;;;;;;;;;;-0.84;100.00;96033.47;10398835;28;2039;-68
2023/02/27 11:51:38;;;;;;;;;;;;;;;-0.84;100.00;96036.13;10398968;28;2025;-66
2023/02/27 11:56:40;;;;;;;;;;;;;;;-0.88;100.00;96037.53;10397093;28;2011;-67
2023/02/27 12:01:43;;;;;;;;;;;;;;;-0.71;100.00;96028.25;10396979;28;2033;-65
2023/02/27 12:06:45;;;;;;;;;;;;;;;-0.58;100.00;96032.78;10393799;28;2036;-65
2023/02/27 12:11:49;;;;;;;;;;;;;;;-0.86;100.00;96023.13;10395800;28;1965;-64
2023/02/27 12:16:52;;;;;;;;;;;;;;;-0.41;100.00;96022.69;10400085;28;2017;-65
2023/02/27 12:21:55;;;;;;;;;;;;;;;-0.77;100.00;96009.75;10399295;28;2010;-64
2023/02/27 12:26:57;;;;;;;;;;;;;;;-1.00;100.00;96029.34;10394493;28;1993;-65
2023/02/27 12:32:00;;;;;;;;;;;;;;;-1.24;100.00;96025.38;10404824;28;2004;-65
2023/02/27 12:37:04;;;;;;;;;;;;;;;-1.53;100.00;96036.91;10397496;28;2018;-65
2023/02/27 12:42:07;;;;;;;;;;;;;;;-0.71;100.00;96025.63;10397615;28;2056;-65
2023/02/27 12:47:09;;;;;;;;;;;;;;;-0.59;100.00;96037.25;10392756;28;2162;-68
2023/02/27 12:52:12;;;;;;;;;;;;;;;-0.55;100.00;96032.41;10393587;28;1930;-66
2023/02/27 12:57:14;;;;;;;;;;;;;;;-0.59;100.00;96033.81;10390132;28;2014;-65
2023/02/27 13:02:17;;;;;;;;;;;;;;;-0.77;100.00;96034.31;10393920;28;1978;-65
2023/02/27 13:07:20;;;;;;;;;;;;;;;-0.37;100.00;96047.72;10390523;28;2014;-64
2023/02/27 13:12:24;;;;;;;;;;;;;;;-0.83;100.00;96033.31;10393364;28;1989;-65
2023/02/27 13:17:27;;;;;;;;;;;;;;;-0.93;100.00;96037.31;10397373;28;2036;-66
2023/02/27 13:22:29;;;;;;;;;;;;;;;-0.64;100.00;96039.66;10394405;28;2041;-65
2023/02/27 13:27:32;;;;;;;;;;;;;;;-0.62;100.00;96037.66;10400326;28;1965;-67
2023/02/27 13:32:35;;;;;;;;;;;;;;;-0.80;100.00;96032.09;10398323;28;2023;-70
2023/02/27 13:37:45;;;;;;;;;;;;;;;-0.86;100.00;96035.53;10392275;28;2008;-65
2023/02/27 13:42:48;;;;;;;;;;;;;;;-0.85;100.00;96021.31;10391267;28;2146;-65
2023/02/27 13:47:50;;;;;;;;;;;;;;;-0.75;100.00;96032.31;10402464;28;2051;-65
2023/02/27 13:52:53;;;;;;;;;;;;;;;-1.03;100.00;96034.19;10405507;28;2007;-66
2023/02/27 13:57:56;;;;;;;;;;;;;;;-0.73;100.00;96030.28;10390352;28;2073;-65
2023/02/27 14:02:58;;;;;;;;;;;;;;;-0.61;100.00;96023.44;10390968;28;1981;-66
2023/02/27 14:08:02;;;;;;;;;;;;;;;-0.74;100.00;96027.88;10393622;28;1977;-68
2023/02/27 14:13:05;;;;;;;;;;;;;;;-1.02;100.00;96030.53;10398957;28;1974;-66
2023/02/27 14:18:08;;;;;;;;;;;;;;;-1.35;100.00;96047.00;10393697;28;1919;-65
2023/02/27 14:23:19;;;;;;;;;;;;;;;-1.51;100.00;96042.03;10392216;28;2122;-66
2023/02/27 14:28:21;;;;;;;;;;;;;;;-1.61;100.00;96031.78;10398419;28;2040;-67
2023/02/27 14:33:24;;;;;;;;;;;;;;;-1.29;100.00;96040.94;10394319;28;2048;-66
2023/02/27 14:38:41;;;;;;;;;;;;;;;-1.42;100.00;96030.31;10403381;28;1962;-66
2023/02/27 14:43:55;;;;;;;;;;;;;;;-1.09;100.00;96041.88;10400457;28;1986;-64
2023/02/27 14:48:58;;;;;;;;;;;;;;;-1.25;100.00;96030.84;10399348;28;1979;-65
2023/02/27 14:54:00;;;;;;;;;;;;;;;-1.30;100.00;96039.31;10404548;28;2103;-72
2023/02/27 14:59:03;;;;;;;;;;;;;;;-1.56;100.00;96039.94;10425324;28;1985;-65
2023/02/27 15:04:07;;;;;;;;;;;;;;;-1.44;100.00;96040.25;10390702;28;2094;-65
2023/02/27 15:09:20;;;;;;;;;;;;;;;-1.65;100.00;96049.81;10405566;28;1953;-64
2023/02/27 15:14:24;;;;;;;;;;;;;;;-1.56;100.00;96045.22;10412228;28;1883;-64
2023/02/27 15:19:27;;;;;;;;;;;;;;;-1.70;100.00;96054.84;10397120;28;1986;-63
2023/02/27 15:24:30;;;;;;;;;;;;;;;-1.81;100.00;96057.97;10396126;28;1970;-64
2023/02/27 15:29:50;;;;;;;;;;;;;;;-1.74;100.00;96053.59;10399879;28;2041;-65
2023/02/27 15:34:52;;;;;;;;;;;;;;;-1.65;100.00;96063.00;10389854;28;2027;-64
2023/02/27 15:39:54;;;;;;;;;;;;;;;-1.64;100.00;96063.81;10396092;28;2021;-64
2023/02/27 15:44:58;;;;;;;;;;;;;;;-1.57;100.00;96063.88;10402757;28;1968;-65
2023/02/27 15:50:01;;;;;;;;;;;;;;;-1.54;100.00;96059.00;10393606;28;2008;-65
2023/02/27 15:55:03;;;;;;;;;;;;;;;-1.65;100.00;96070.91;10395910;28;1962;-63
2023/02/27 16:00:06;;;;;;;;;;;;;;;-1.65;100.00;96070.91;10397382;28;2040;-63
2023/02/27 16:05:09;;;;;;;;;;;;;;;-1.67;100.00;96075.53;10397560;28;1966;-66
2023/02/27 16:10:11;;;;;;;;;;;;;;;-1.83;100.00;96096.91;10400010;28;2059;-66
2023/02/27 16:15:16;;;;;;;;;;;;;;;-1.80;100.00;96093.88;10396869;28;1943;-64
2023/02/27 16:20:24;;;;;;;;;;;;;;;-1.91;100.00;96091.72;10398631;28;2028;-65
2023/02/27 16:25:27;;;;;;;;;;;;;;;-1.94;100.00;96100.03;10395652;28;2164;-65
2023/02/27 16:30:29;;;;;;;;;;;;;;;-1.96;100.00;96107.31;10388407;28;1981;-64
2023/02/27 16:35:34;;;;;;;;;;;;;;;-1.93;100.00;96112.19;10397495;28;2041;-63
2023/02/27 16:40:36;;;;;;;;;;;;;;;-1.93;100.00;96113.00;10395980;28;1947;-65
2023/02/27 16:45:45;;;;;;;;;;;;;;;-2.08;100.00;96124.59;10396529;28;1993;-67
2023/02/27 16:50:47;;;;;;;;;;;;;;;-2.12;100.00;96131.22;10400899;28;1910;-65
2023/02/27 16:55:50;;;;;;;;;;;;;;;-2.19;100.00;96139.06;10402951;28;2042;-65
2023/02/27 17:00:52;;;;;;;;;;;;;;;-2.21;100.00;96139.25;10393012;28;1977;-65
2023/02/27 17:05:56;;;;;;;;;;;;;;;-2.19;100.00;96139.88;10394484;28;1972;-65
2023/02/27 17:10:59;;;;;;;;;;;;;;;-2.28;100.00;96156.78;10399489;28;2069;-67
2023/02/27 17:16:03;;;;;;;;;;;;;;;-2.26;100.00;96154.78;10393486;28;2188;-64
2023/02/27 17:21:06;;;;;;;;;;;;;;;-2.21;100.00;96157.69;10407463;28;1961;-69
2023/02/27 17:26:08;;;;;;;;;;;;;;;-2.30;100.00;96163.22;10399737;28;2089;-65
2023/02/27 17:31:11;;;;;;;;;;;;;;;-2.36;100.00;96170.03;10394947;28;2166;-65
2023/02/27 17:36:13;;;;;;;;;;;;;;;-2.35;100.00;96179.59;10431446;28;2004;-65
2023/02/27 17:41:16;;;;;;;;;;;;;;;-2.50;100.00;96186.66;10402700;28;2032;-64
2023/02/27 17:46:29;;;;;;;;;;;;;;;-2.49;100.00;96193.56;10394467;28;1982;-72
2023/02/27 17:51:34;;;;;;;;;;;;;;;-2.57;100.00;96198.94;10403389;28;1983;-64
2023/02/27 17:56:36;;;;;;;;;;;;;;;-2.57;100.00;96209.44;10407832;28;2090;-65
2023/02/27 18:01:39;;;;;;;;;;;;;;;-2.63;100.00;96215.44;10407324;28;1986;-66
2023/02/27 18:06:43;;;;;;;;;;;;;;;-2.69;100.00;96221.41;10402468;28;1977;-67
2023/02/27 18:11:46;;;;;;;;;;;;;;;-2.78;100.00;96220.69;10399920;28;1958;-66
2023/02/27 18:16:49;;;;;;;;;;;;;;;-2.81;100.00;96223.66;10401836;28;1942;-65
2023/02/27 18:22:01;;;;;;;;;;;;;;;-2.85;100.00;96222.41;10403579;28;1986;-66
2023/02/27 18:27:04;;;;;;;;;;;;;;;-2.88;100.00;96210.41;10403689;28;2011;-65
2023/02/27 18:32:06;;;;;;;;;;;;;;;-2.86;100.00;96218.97;10395174;28;2124;-65
2023/02/27 18:37:10;;;;;;;;;;;;;;;-2.93;100.00;96220.66;10395618;28;1981;-66
2023/02/27 18:42:14;;;;;;;;;;;;;;;-2.97;100.00;96221.19;10395283;28;1966;-64
2023/02/27 18:47:17;;;;;;;;;;;;;;;-3.11;100.00;96228.06;10402902;28;1931;-66
2023/02/27 18:52:21;;;;;;;;;;;;;;;-3.15;100.00;96234.66;10405854;28;1554;-69
2023/02/27 18:57:23;;;;;;;;;;;;;;;-3.18;100.00;96242.88;10406545;28;1841;-67
2023/02/27 19:02:26;;;;;;;;;;;;;;;-3.26;100.00;96247.22;10402458;28;1955;-66
2023/02/27 19:07:29;;;;;;;;;;;;;;;-3.24;100.00;96254.09;10424584;28;2017;-66
2023/02/27 19:12:31;;;;;;;;;;;;;;;-3.36;100.00;96256.34;10395905;28;1997;-67
2023/02/27 19:17:34;;;;;;;;;;;;;;;-3.37;100.00;96245.03;10390832;28;1970;-66
2023/02/27 19:22:37;;;;;;;;;;;;;;;-3.38;100.00;96255.69;10402908;28;2211;-70
2023/02/27 19:27:40;;;;;;;;;;;;;;;-3.32;100.00;96257.63;10401869;28;2091;-66
2023/02/27 19:32:42;;;;;;;;;;;;;;;-3.35;100.00;96248.28;10403276;28;2053;-66
2023/02/27 19:37:46;;;;;;;;;;;;;;;-3.28;100.00;96236.06;10392762;28;1990;-67
2023/02/27 19:42:49;;;;;;;;;;;;;;;-3.27;100.00;96242.97;10402858;28;1974;-67
2023/02/27 19:47:52;;;;;;;;;;;;;;;-3.32;100.00;96247.91;10401573;28;2019;-67
2023/02/27 19:52:55;;;;;;;;;;;;;;;-3.33;100.00;96240.22;10401912;28;2042;-67
2023/02/27 19:57:57;;;;;;;;;;;;;;;-3.36;100.00;96235.31;10404710;28;2121;-67
2023/02/27 20:03:08;;;;;;;;;;;;;;;-3.35;100.00;96237.78;10401810;28;1975;-65
2023/02/27 20:08:11;;;;;;;;;;;;;;;-3.27;100.00;96234.25;10401950;28;1986;-67
2023/02/27 20:13:14;;;;;;;;;;;;;;;-3.27;100.00;96234.25;10402883;28;2010;-68
2023/02/27 20:18:17;;;;;;;;;;;;;;;-3.22;100.00;96221.41;10401968;28;2150;-66
2023/02/27 20:23:22;;;;;;;;;;;;;;;-3.19;100.00;96228.94;10400074;28;1975;-64
2023/02/27 20:28:26;;;;;;;;;;;;;;;-3.23;100.00;96224.22;10405335;28;2014;-67
2023/02/27 20:33:28;;;;;;;;;;;;;;;-3.22;100.00;96226.66;10402298;28;2092;-66
2023/02/27 20:38:32;;;;;;;;;;;;;;;-3.18;100.00;96224.47;10404216;28;1974;-68
2023/02/27 20:43:34;;;;;;;;;;;;;;;-3.14;100.00;96217.88;10396849;28;2035;-65
2023/02/27 20:48:36;;;;;;;;;;;;;;;-3.09;100.00;96210.28;10401503;28;1978;-64
2023/02/27 20:53:39;;;;;;;;;;;;;;;-3.09;100.00;96210.28;10396507;28;1985;-65
2023/02/27 20:58:41;;;;;;;;;;;;;;;-3.15;100.00;96208.38;10401200;28;1972;-66
2023/02/27 21:03:49;;;;;;;;;;;;;;;-3.19;100.00;96204.44;10397508;28;1982;-69
2023/02/27 21:08:53;;;;;;;;;;;;;;;-3.15;100.00;96193.41;10403897;28;2170;-73
2023/02/27 21:13:57;;;;;;;;;;;;;;;-3.19;100.00;96204.44;10402957;28;1919;-69
2023/02/27 21:19:02;;;;;;;;;;;;;;;-3.35;100.00;96193.06;10397026;28;2007;-67
2023/02/27 21:24:06;;;;;;;;;;;;;;;-3.37;100.00;96192.44;10393821;28;2139;-66
2023/02/27 21:29:09;;;;;;;;;;;;;;;-3.41;100.00;96195.59;10396442;28;1987;-65
2023/02/27 21:34:21;;;;;;;;;;;;;;;-3.43;100.00;96198.41;10405949;28;1978;-65
2023/02/27 21:39:24;;;;;;;;;;;;;;;-3.46;100.00;96203.19;10406276;28;2163;-69
2023/02/27 21:44:28;;;;;;;;;;;;;;;-3.43;100.00;96197.59;10401367;28;1982;-66
2023/02/27 21:49:32;;;;;;;;;;;;;;;-3.40;100.00;96192.78;10395098;28;1961;-65
2023/02/27 21:54:35;;;;;;;;;;;;;;;-3.39;100.00;96194.41;10400758;28;2115;-66
2023/02/27 21:59:48;;;;;;;;;;;;;;;-3.37;100.00;96184.56;10400983;28;1978;-65
2023/02/27 22:04:50;;;;;;;;;;;;;;;-3.31;100.00;96180.38;10397451;28;2035;-65
2023/02/27 22:10:03;;;;;;;;;;;;;;;-3.28;100.00;96174.78;10396110;28;1909;-67
2023/02/27 22:15:06;;;;;;;;;;;;;;;-3.29;100.00;96168.72;10403289;28;2017;-70
2023/02/27 22:20:08;;;;;;;;;;;;;;;-3.31;100.00;96165.44;10395730;28;1957;-65
2023/02/27 22:25:10;;;;;;;;;;;;;;;-3.36;100.00;96156.47;10398727;28;1990;-66
2023/02/27 22:30:13;;;;;;;;;;;;;;;-3.39;100.00;96162.06;10388286;28;2233;-65
2023/02/27 22:35:16;;;;;;;;;;;;;;;-3.48;100.00;96157.88;10403091;28;2100;-65
2023/02/27 22:40:20;;;;;;;;;;;;;;;-3.49;100.00;96146.56;10395088;28;2078;-65
2023/02/27 22:45:23;;;;;;;;;;;;;;;-3.49;100.00;96146.56;10431247;28;2125;-66
2023/02/27 22:50:29;;;;;;;;;;;;;;;-3.53;100.00;96153.13;10393866;28;2121;-65
2023/02/27 22:55:34;;;;;;;;;;;;;;;-3.56;100.00;96137.75;10402528;28;1985;-64
2023/02/27 23:00:37;;;;;;;;;;;;;;;-3.57;100.00;96133.44;10403990;28;2104;-64
2023/02/27 23:05:43;;;;;;;;;;;;;;;-3.62;100.00;96125.31;10405210;28;2125;-65
2023/02/27 23:10:45;;;;;;;;;;;;;;;-3.66;100.00;96124.00;10401867;28;2100;-65
2023/02/27 23:15:48;;;;;;;;;;;;;;;-3.68;100.00;96129.44;10402436;28;2109;-66
2023/02/27 23:20:51;;;;;;;;;;;;;;;-3.67;100.00;96133.72;10402887;28;2128;-65
2023/02/27 23:25:54;;;;;;;;;;;;;;;-3.68;100.00;96133.91;10397936;28;2089;-66
2023/02/27 23:30:58;;;;;;;;;;;;;;;-3.62;100.00;96134.00;10398458;28;1978;-71
2023/02/27 23:36:00;;;;;;;;;;;;;;;-3.61;100.00;96126.94;10402693;28;1990;-65
2023/02/27 23:41:04;;;;;;;;;;;;;;;-3.70;100.00;96133.22;10397821;28;1973;-66
2023/02/27 23:46:06;;;;;;;;;;;;;;;-3.71;100.00;96121.91;10392870;28;2078;-65
2023/02/27 23:51:09;;;;;;;;;;;;;;;-3.75;100.00;96120.66;10400262;28;2005;-66
2023/02/27 23:56:12;;;;;;;;;;;;;;;-3.89;100.00;96124.81;10396927;28;1982;-67
